sensor_id;sensor_type;location;lat;lon;timestamp;temperature;humidity
8662;DHT22;29684;47.722;9.388;2024-01-25T00:01:56;9.00;99.90
8662;DHT22;29684;47.722;9.388;2024-01-25T00:04:41;9.00;99.90
8662;DHT22;29684;47.722;9.388;2024-01-25T00:07:25;8.90;99.90
8662;DHT22;29684;47.722;9.388;2024-01-25T00:10:09;8.90;99.90
8662;DHT22;29684;47.722;9.388;2024-01-25T00:12:53;8.90;99.90
8662;DHT22;29684;47.722;9.388;2024-01-25T00:15:38;8.80;99.90
8662;DHT22;29684;47.722;9.388;2024-01-25T00:18:22;8.90;99.90
8662;DHT22;29684;47.722;9.388;2024-01-25T00:21:06;8.80;99.90
8662;DHT22;29684;47.722;9.388;2024-01-25T00:23:50;8.80;99.90
8662;DHT22;29684;47.722;9.388;2024-01-25T00:26:34;8.80;99.90
8662;DHT22;29684;47.722;9.388;2024-01-25T00:29:18;8.80;99.90
8662;DHT22;29684;47.722;9.388;2024-01-25T00:32:02;8.80;99.90
8662;DHT22;29684;47.722;9.388;2024-01-25T00:34:47;8.80;99.90
8662;DHT22;29684;47.722;9.388;2024-01-25T00:37:31;8.70;99.90
8662;DHT22;29684;47.722;9.388;2024-01-25T00:40:16;8.70;99.90
8662;DHT22;29684;47.722;9.388;2024-01-25T00:43:02;8.70;99.90
8662;DHT22;29684;47.722;9.388;2024-01-25T00:45:47;8.70;99.90
8662;DHT22;29684;47.722;9.388;2024-01-25T00:48:31;8.70;99.90
8662;DHT22;29684;47.722;9.388;2024-01-25T00:51:21;8.70;99.90
8662;DHT22;29684;47.722;9.388;2024-01-25T00:54:06;8.70;99.90
8662;DHT22;29684;47.722;9.388;2024-01-25T00:56:51;8.70;99.90
8662;DHT22;29684;47.722;9.388;2024-01-25T00:59:36;8.70;99.90
8662;DHT22;29684;47.722;9.388;2024-01-25T01:02:22;8.70;99.90
8662;DHT22;29684;47.722;9.388;2024-01-25T01:05:06;8.70;99.90
8662;DHT22;29684;47.722;9.388;2024-01-25T01:07:51;8.70;99.90
8662;DHT22;29684;47.722;9.388;2024-01-25T01:10:36;8.70;99.90
8662;DHT22;29684;47.722;9.388;2024-01-25T01:13:20;8.70;99.90
8662;DHT22;29684;47.722;9.388;2024-01-25T01:16:04;8.70;99.90
8662;DHT22;29684;47.722;9.388;2024-01-25T01:18:48;8.70;99.90
8662;DHT22;29684;47.722;9.388;2024-01-25T01:21:36;8.70;99.90
8662;DHT22;29684;47.722;9.388;2024-01-25T01:24:20;8.70;99.90
8662;DHT22;29684;47.722;9.388;2024-01-25T01:27:04;8.70;99.90
8662;DHT22;29684;47.722;9.388;2024-01-25T01:29:48;8.60;99.90
8662;DHT22;29684;47.722;9.388;2024-01-25T01:32:32;8.60;99.90
8662;DHT22;29684;47.722;9.388;2024-01-25T01:35:16;8.60;99.90
8662;DHT22;29684;47.722;9.388;2024-01-25T01:38:00;8.50;99.90
8662;DHT22;29684;47.722;9.388;2024-01-25T01:40:44;8.50;99.90
8662;DHT22;29684;47.722;9.388;2024-01-25T01:43:30;8.40;99.90
8662;DHT22;29684;47.722;9.388;2024-01-25T01:49:17;8.40;99.90
8662;DHT22;29684;47.722;9.388;2024-01-25T01:52:01;8.30;99.90
8662;DHT22;29684;47.722;9.388;2024-01-25T01:54:46;8.30;99.90
8662;DHT22;29684;47.722;9.388;2024-01-25T01:57:32;8.30;99.90
8662;DHT22;29684;47.722;9.388;2024-01-25T02:00:16;8.30;99.90
8662;DHT22;29684;47.722;9.388;2024-01-25T02:03:01;8.30;99.90
8662;DHT22;29684;47.722;9.388;2024-01-25T02:05:46;8.20;99.90
8662;DHT22;29684;47.722;9.388;2024-01-25T02:08:30;8.30;99.90
8662;DHT22;29684;47.722;9.388;2024-01-25T02:11:15;8.30;99.90
8662;DHT22;29684;47.722;9.388;2024-01-25T02:13:59;8.30;99.90
8662;DHT22;29684;47.722;9.388;2024-01-25T02:16:43;8.30;99.90
8662;DHT22;29684;47.722;9.388;2024-01-25T02:19:29;8.20;99.90
8662;DHT22;29684;47.722;9.388;2024-01-25T02:22:20;8.20;99.90
8662;DHT22;29684;47.722;9.388;2024-01-25T02:25:05;8.20;99.90
8662;DHT22;29684;47.722;9.388;2024-01-25T02:27:49;8.20;99.90
8662;DHT22;29684;47.722;9.388;2024-01-25T02:30:34;8.20;99.90
8662;DHT22;29684;47.722;9.388;2024-01-25T02:33:18;8.20;99.90
8662;DHT22;29684;47.722;9.388;2024-01-25T02:36:02;8.30;99.90
8662;DHT22;29684;47.722;9.388;2024-01-25T02:38:47;8.20;99.90
8662;DHT22;29684;47.722;9.388;2024-01-25T02:41:31;8.20;99.90
8662;DHT22;29684;47.722;9.388;2024-01-25T02:44:16;8.20;99.90
8662;DHT22;29684;47.722;9.388;2024-01-25T02:47:00;8.20;99.90
8662;DHT22;29684;47.722;9.388;2024-01-25T02:49:45;8.20;99.90
8662;DHT22;29684;47.722;9.388;2024-01-25T02:52:29;8.20;99.90
8662;DHT22;29684;47.722;9.388;2024-01-25T02:55:13;8.20;99.90
8662;DHT22;29684;47.722;9.388;2024-01-25T02:57:57;8.20;99.90
8662;DHT22;29684;47.722;9.388;2024-01-25T03:00:42;8.20;99.90
8662;DHT22;29684;47.722;9.388;2024-01-25T03:03:26;8.20;99.90
8662;DHT22;29684;47.722;9.388;2024-01-25T03:06:10;8.10;99.90
8662;DHT22;29684;47.722;9.388;2024-01-25T03:08:54;8.20;99.90
8662;DHT22;29684;47.722;9.388;2024-01-25T03:11:38;8.30;99.90
8662;DHT22;29684;47.722;9.388;2024-01-25T03:14:22;8.30;99.90
8662;DHT22;29684;47.722;9.388;2024-01-25T03:17:06;8.30;99.90
8662;DHT22;29684;47.722;9.388;2024-01-25T03:19:50;7.80;99.90
8662;DHT22;29684;47.722;9.388;2024-01-25T03:22:34;8.30;99.90
8662;DHT22;29684;47.722;9.388;2024-01-25T03:25:18;8.30;99.90
8662;DHT22;29684;47.722;9.388;2024-01-25T03:28:03;8.30;99.90
8662;DHT22;29684;47.722;9.388;2024-01-25T03:30:50;8.20;99.90
8662;DHT22;29684;47.722;9.388;2024-01-25T03:33:34;8.20;99.90
8662;DHT22;29684;47.722;9.388;2024-01-25T03:36:18;8.20;99.90
8662;DHT22;29684;47.722;9.388;2024-01-25T03:39:02;8.20;99.90
8662;DHT22;29684;47.722;9.388;2024-01-25T03:41:47;8.20;99.90
8662;DHT22;29684;47.722;9.388;2024-01-25T03:44:31;8.20;99.90
8662;DHT22;29684;47.722;9.388;2024-01-25T03:47:15;8.10;99.90
8662;DHT22;29684;47.722;9.388;2024-01-25T03:50:00;8.10;99.90
8662;DHT22;29684;47.722;9.388;2024-01-25T03:52:44;8.10;99.90
8662;DHT22;29684;47.722;9.388;2024-01-25T03:55:29;8.10;99.90
8662;DHT22;29684;47.722;9.388;2024-01-25T03:58:13;8.10;99.90
8662;DHT22;29684;47.722;9.388;2024-01-25T04:00:57;8.00;99.90
8662;DHT22;29684;47.722;9.388;2024-01-25T04:03:42;8.10;99.90
8662;DHT22;29684;47.722;9.388;2024-01-25T04:06:26;8.10;99.90
8662;DHT22;29684;47.722;9.388;2024-01-25T04:09:10;8.10;99.90
8662;DHT22;29684;47.722;9.388;2024-01-25T04:11:56;8.10;99.90
8662;DHT22;29684;47.722;9.388;2024-01-25T04:14:40;8.10;99.90
8662;DHT22;29684;47.722;9.388;2024-01-25T04:17:24;8.10;99.90
8662;DHT22;29684;47.722;9.388;2024-01-25T04:20:08;8.10;99.90
8662;DHT22;29684;47.722;9.388;2024-01-25T04:22:53;8.10;99.90
8662;DHT22;29684;47.722;9.388;2024-01-25T04:25:37;8.10;99.90
8662;DHT22;29684;47.722;9.388;2024-01-25T04:28:21;8.10;99.90
8662;DHT22;29684;47.722;9.388;2024-01-25T04:31:05;8.10;99.90
8662;DHT22;29684;47.722;9.388;2024-01-25T04:33:49;8.10;99.90
8662;DHT22;29684;47.722;9.388;2024-01-25T04:36:33;8.10;99.90
8662;DHT22;29684;47.722;9.388;2024-01-25T04:39:17;8.10;99.90
8662;DHT22;29684;47.722;9.388;2024-01-25T04:42:01;8.10;99.90
8662;DHT22;29684;47.722;9.388;2024-01-25T04:44:45;8.10;99.90
8662;DHT22;29684;47.722;9.388;2024-01-25T04:47:29;8.10;99.90
8662;DHT22;29684;47.722;9.388;2024-01-25T04:50:13;8.00;99.90
8662;DHT22;29684;47.722;9.388;2024-01-25T04:52:58;8.00;99.90
8662;DHT22;29684;47.722;9.388;2024-01-25T04:55:42;8.00;99.90
8662;DHT22;29684;47.722;9.388;2024-01-25T04:58:26;8.00;99.90
8662;DHT22;29684;47.722;9.388;2024-01-25T05:01:11;8.10;99.90
8662;DHT22;29684;47.722;9.388;2024-01-25T05:03:55;8.10;99.90
8662;DHT22;29684;47.722;9.388;2024-01-25T05:06:39;8.10;99.90
8662;DHT22;29684;47.722;9.388;2024-01-25T05:09:23;8.10;99.90
8662;DHT22;29684;47.722;9.388;2024-01-25T05:12:07;8.10;99.90
8662;DHT22;29684;47.722;9.388;2024-01-25T05:14:52;8.10;99.90
8662;DHT22;29684;47.722;9.388;2024-01-25T05:17:36;8.10;99.90
8662;DHT22;29684;47.722;9.388;2024-01-25T05:20:20;8.10;99.90
8662;DHT22;29684;47.722;9.388;2024-01-25T05:23:04;8.10;99.90
8662;DHT22;29684;47.722;9.388;2024-01-25T05:25:49;8.00;99.90
8662;DHT22;29684;47.722;9.388;2024-01-25T05:28:33;8.00;99.90
8662;DHT22;29684;47.722;9.388;2024-01-25T05:31:17;7.90;99.90
8662;DHT22;29684;47.722;9.388;2024-01-25T05:34:01;7.90;99.90
8662;DHT22;29684;47.722;9.388;2024-01-25T05:36:46;7.80;99.90
8662;DHT22;29684;47.722;9.388;2024-01-25T05:39:30;7.80;99.90
8662;DHT22;29684;47.722;9.388;2024-01-25T05:42:14;7.80;99.90
8662;DHT22;29684;47.722;9.388;2024-01-25T05:44:58;7.80;99.90
8662;DHT22;29684;47.722;9.388;2024-01-25T05:47:42;7.80;99.90
8662;DHT22;29684;47.722;9.388;2024-01-25T05:50:26;7.70;99.90
8662;DHT22;29684;47.722;9.388;2024-01-25T05:53:10;7.70;99.90
8662;DHT22;29684;47.722;9.388;2024-01-25T05:55:54;7.60;99.90
8662;DHT22;29684;47.722;9.388;2024-01-25T05:58:39;7.70;99.90
8662;DHT22;29684;47.722;9.388;2024-01-25T06:01:23;7.70;99.90
8662;DHT22;29684;47.722;9.388;2024-01-25T06:04:07;7.60;99.90
8662;DHT22;29684;47.722;9.388;2024-01-25T06:06:51;7.70;99.90
8662;DHT22;29684;47.722;9.388;2024-01-25T06:09:35;7.60;99.90
8662;DHT22;29684;47.722;9.388;2024-01-25T06:12:19;7.60;99.90
8662;DHT22;29684;47.722;9.388;2024-01-25T06:15:04;7.60;99.90
8662;DHT22;29684;47.722;9.388;2024-01-25T06:17:48;7.60;99.90
8662;DHT22;29684;47.722;9.388;2024-01-25T06:20:32;7.60;99.90
8662;DHT22;29684;47.722;9.388;2024-01-25T06:23:16;7.70;99.90
8662;DHT22;29684;47.722;9.388;2024-01-25T06:26:01;7.60;99.90
8662;DHT22;29684;47.722;9.388;2024-01-25T06:28:45;7.60;99.90
8662;DHT22;29684;47.722;9.388;2024-01-25T06:31:29;7.60;99.90
8662;DHT22;29684;47.722;9.388;2024-01-25T06:34:13;7.70;99.90
8662;DHT22;29684;47.722;9.388;2024-01-25T06:36:57;7.60;99.90
8662;DHT22;29684;47.722;9.388;2024-01-25T06:39:41;7.30;99.90
8662;DHT22;29684;47.722;9.388;2024-01-25T06:42:25;7.60;99.90
8662;DHT22;29684;47.722;9.388;2024-01-25T06:45:10;7.60;99.90
8662;DHT22;29684;47.722;9.388;2024-01-25T06:47:55;7.50;99.90
8662;DHT22;29684;47.722;9.388;2024-01-25T06:50:39;7.50;99.90
8662;DHT22;29684;47.722;9.388;2024-01-25T06:53:23;7.60;99.90
8662;DHT22;29684;47.722;9.388;2024-01-25T06:56:07;7.50;99.90
8662;DHT22;29684;47.722;9.388;2024-01-25T06:58:51;7.50;99.90
8662;DHT22;29684;47.722;9.388;2024-01-25T07:01:36;7.50;99.90
8662;DHT22;29684;47.722;9.388;2024-01-25T07:04:20;7.50;99.90
8662;DHT22;29684;47.722;9.388;2024-01-25T07:07:05;7.50;99.90
8662;DHT22;29684;47.722;9.388;2024-01-25T07:09:49;7.50;99.90
8662;DHT22;29684;47.722;9.388;2024-01-25T07:12:33;7.50;99.90
8662;DHT22;29684;47.722;9.388;2024-01-25T07:15:17;7.40;99.90
8662;DHT22;29684;47.722;9.388;2024-01-25T07:18:01;7.50;99.90
8662;DHT22;29684;47.722;9.388;2024-01-25T07:20:46;7.50;99.90
8662;DHT22;29684;47.722;9.388;2024-01-25T07:23:30;7.50;99.90
8662;DHT22;29684;47.722;9.388;2024-01-25T07:26:18;7.40;99.90
8662;DHT22;29684;47.722;9.388;2024-01-25T07:29:02;7.30;99.90
8662;DHT22;29684;47.722;9.388;2024-01-25T07:31:46;7.40;99.90
8662;DHT22;29684;47.722;9.388;2024-01-25T07:34:30;7.40;99.90
8662;DHT22;29684;47.722;9.388;2024-01-25T07:37:14;7.60;99.90
8662;DHT22;29684;47.722;9.388;2024-01-25T07:39:59;7.50;99.90
8662;DHT22;29684;47.722;9.388;2024-01-25T07:42:46;7.50;99.90
8662;DHT22;29684;47.722;9.388;2024-01-25T07:45:31;7.60;99.90
8662;DHT22;29684;47.722;9.388;2024-01-25T07:48:16;7.60;99.90
8662;DHT22;29684;47.722;9.388;2024-01-25T07:51:00;7.60;99.90
8662;DHT22;29684;47.722;9.388;2024-01-25T07:53:45;7.60;99.90
8662;DHT22;29684;47.722;9.388;2024-01-25T07:56:30;7.60;99.90
8662;DHT22;29684;47.722;9.388;2024-01-25T07:59:14;7.60;99.90
8662;DHT22;29684;47.722;9.388;2024-01-25T08:01:58;7.60;99.90
8662;DHT22;29684;47.722;9.388;2024-01-25T08:04:43;7.60;99.90
8662;DHT22;29684;47.722;9.388;2024-01-25T08:07:27;7.60;99.90
8662;DHT22;29684;47.722;9.388;2024-01-25T08:10:11;7.60;99.90
8662;DHT22;29684;47.722;9.388;2024-01-25T08:12:55;7.60;99.90
8662;DHT22;29684;47.722;9.388;2024-01-25T08:15:39;7.70;99.90
8662;DHT22;29684;47.722;9.388;2024-01-25T08:18:23;7.60;99.90
8662;DHT22;29684;47.722;9.388;2024-01-25T08:21:07;7.70;99.90
8662;DHT22;29684;47.722;9.388;2024-01-25T08:23:51;7.70;99.90
8662;DHT22;29684;47.722;9.388;2024-01-25T08:26:35;7.80;99.90
8662;DHT22;29684;47.722;9.388;2024-01-25T08:29:19;7.80;99.90
8662;DHT22;29684;47.722;9.388;2024-01-25T08:32:04;7.80;99.90
8662;DHT22;29684;47.722;9.388;2024-01-25T08:34:48;7.80;99.90
8662;DHT22;29684;47.722;9.388;2024-01-25T08:37:32;7.80;99.90
8662;DHT22;29684;47.722;9.388;2024-01-25T08:40:17;7.90;99.90
8662;DHT22;29684;47.722;9.388;2024-01-25T08:43:01;7.90;99.90
8662;DHT22;29684;47.722;9.388;2024-01-25T08:45:45;7.80;99.90
8662;DHT22;29684;47.722;9.388;2024-01-25T08:48:30;7.90;99.90
8662;DHT22;29684;47.722;9.388;2024-01-25T08:51:14;8.00;99.90
8662;DHT22;29684;47.722;9.388;2024-01-25T08:54:10;8.00;99.90
8662;DHT22;29684;47.722;9.388;2024-01-25T08:57:04;8.10;99.90
8662;DHT22;29684;47.722;9.388;2024-01-25T08:59:53;8.00;99.90
8662;DHT22;29684;47.722;9.388;2024-01-25T09:02:39;8.00;99.90
8662;DHT22;29684;47.722;9.388;2024-01-25T09:05:23;8.20;99.90
8662;DHT22;29684;47.722;9.388;2024-01-25T09:08:09;8.20;99.90
8662;DHT22;29684;47.722;9.388;2024-01-25T09:10:53;8.20;99.90
8662;DHT22;29684;47.722;9.388;2024-01-25T09:13:37;8.20;99.90
8662;DHT22;29684;47.722;9.388;2024-01-25T09:16:24;8.30;99.90
8662;DHT22;29684;47.722;9.388;2024-01-25T09:19:08;8.20;99.90
8662;DHT22;29684;47.722;9.388;2024-01-25T09:21:52;8.30;99.90
8662;DHT22;29684;47.722;9.388;2024-01-25T09:24:36;8.30;99.90
8662;DHT22;29684;47.722;9.388;2024-01-25T09:27:23;8.30;99.90
8662;DHT22;29684;47.722;9.388;2024-01-25T09:30:08;8.40;99.90
8662;DHT22;29684;47.722;9.388;2024-01-25T09:32:52;8.80;99.90
8662;DHT22;29684;47.722;9.388;2024-01-25T09:35:36;8.90;99.90
8662;DHT22;29684;47.722;9.388;2024-01-25T09:38:21;8.80;99.90
8662;DHT22;29684;47.722;9.388;2024-01-25T09:41:05;8.80;99.90
8662;DHT22;29684;47.722;9.388;2024-01-25T09:43:50;8.70;99.90
8662;DHT22;29684;47.722;9.388;2024-01-25T09:46:35;8.60;99.90
8662;DHT22;29684;47.722;9.388;2024-01-25T09:49:19;8.60;99.90
8662;DHT22;29684;47.722;9.388;2024-01-25T09:52:04;8.60;99.90
8662;DHT22;29684;47.722;9.388;2024-01-25T09:54:49;8.60;99.90
8662;DHT22;29684;47.722;9.388;2024-01-25T09:57:35;8.60;99.90
8662;DHT22;29684;47.722;9.388;2024-01-25T10:00:23;8.70;99.90
8662;DHT22;29684;47.722;9.388;2024-01-25T10:03:09;8.70;99.90
8662;DHT22;29684;47.722;9.388;2024-01-25T10:05:54;8.70;99.90
8662;DHT22;29684;47.722;9.388;2024-01-25T10:08:38;8.60;99.90
8662;DHT22;29684;47.722;9.388;2024-01-25T10:11:23;8.60;99.90
8662;DHT22;29684;47.722;9.388;2024-01-25T10:14:08;8.60;99.90
8662;DHT22;29684;47.722;9.388;2024-01-25T10:16:52;8.70;99.90
8662;DHT22;29684;47.722;9.388;2024-01-25T10:19:36;8.70;99.90
8662;DHT22;29684;47.722;9.388;2024-01-25T10:22:20;8.70;99.90
8662;DHT22;29684;47.722;9.388;2024-01-25T10:25:11;8.70;99.90
8662;DHT22;29684;47.722;9.388;2024-01-25T10:27:56;8.70;99.90
8662;DHT22;29684;47.722;9.388;2024-01-25T10:30:41;8.70;99.90
8662;DHT22;29684;47.722;9.388;2024-01-25T10:33:26;8.60;99.90
8662;DHT22;29684;47.722;9.388;2024-01-25T10:36:10;8.60;99.90
8662;DHT22;29684;47.722;9.388;2024-01-25T10:38:56;8.60;99.90
8662;DHT22;29684;47.722;9.388;2024-01-25T10:41:41;8.70;99.90
8662;DHT22;29684;47.722;9.388;2024-01-25T10:44:27;8.80;99.90
8662;DHT22;29684;47.722;9.388;2024-01-25T10:47:11;8.80;99.90
8662;DHT22;29684;47.722;9.388;2024-01-25T10:49:56;8.70;99.90
8662;DHT22;29684;47.722;9.388;2024-01-25T10:52:41;8.90;99.90
8662;DHT22;29684;47.722;9.388;2024-01-25T10:55:27;9.00;99.90
8662;DHT22;29684;47.722;9.388;2024-01-25T10:58:14;9.00;99.90
8662;DHT22;29684;47.722;9.388;2024-01-25T11:00:59;9.00;99.90
8662;DHT22;29684;47.722;9.388;2024-01-25T11:03:47;9.00;99.90
8662;DHT22;29684;47.722;9.388;2024-01-25T11:06:31;9.10;99.90
8662;DHT22;29684;47.722;9.388;2024-01-25T11:09:19;9.00;99.90
8662;DHT22;29684;47.722;9.388;2024-01-25T11:12:13;9.00;99.90
8662;DHT22;29684;47.722;9.388;2024-01-25T11:15:06;9.00;99.90
8662;DHT22;29684;47.722;9.388;2024-01-25T11:17:53;8.90;99.90
8662;DHT22;29684;47.722;9.388;2024-01-25T11:20:38;8.80;99.90
8662;DHT22;29684;47.722;9.388;2024-01-25T11:23:23;8.80;99.90
8662;DHT22;29684;47.722;9.388;2024-01-25T11:26:08;8.80;99.90
8662;DHT22;29684;47.722;9.388;2024-01-25T11:28:52;8.80;99.90
8662;DHT22;29684;47.722;9.388;2024-01-25T11:31:36;8.80;99.90
8662;DHT22;29684;47.722;9.388;2024-01-25T11:34:21;8.70;99.90
8662;DHT22;29684;47.722;9.388;2024-01-25T11:37:06;8.80;99.90
8662;DHT22;29684;47.722;9.388;2024-01-25T11:39:50;8.80;99.90
8662;DHT22;29684;47.722;9.388;2024-01-25T11:42:34;8.80;99.90
8662;DHT22;29684;47.722;9.388;2024-01-25T11:45:18;8.90;99.90
8662;DHT22;29684;47.722;9.388;2024-01-25T11:48:02;8.90;99.90
8662;DHT22;29684;47.722;9.388;2024-01-25T11:50:46;8.90;99.90
8662;DHT22;29684;47.722;9.388;2024-01-25T11:53:31;9.00;99.90
8662;DHT22;29684;47.722;9.388;2024-01-25T11:56:23;9.00;99.90
8662;DHT22;29684;47.722;9.388;2024-01-25T11:59:09;9.20;99.90
8662;DHT22;29684;47.722;9.388;2024-01-25T12:01:54;9.00;99.90
8662;DHT22;29684;47.722;9.388;2024-01-25T12:04:39;9.00;99.90
8662;DHT22;29684;47.722;9.388;2024-01-25T12:07:23;9.00;99.90
8662;DHT22;29684;47.722;9.388;2024-01-25T12:10:14;8.90;99.90
8662;DHT22;29684;47.722;9.388;2024-01-25T12:13:00;8.90;99.90
8662;DHT22;29684;47.722;9.388;2024-01-25T12:15:46;8.90;99.90
8662;DHT22;29684;47.722;9.388;2024-01-25T12:18:30;8.80;99.90
8662;DHT22;29684;47.722;9.388;2024-01-25T12:21:15;8.90;99.90
8662;DHT22;29684;47.722;9.388;2024-01-25T12:23:59;8.90;99.90
8662;DHT22;29684;47.722;9.388;2024-01-25T12:26:44;8.90;99.90
8662;DHT22;29684;47.722;9.388;2024-01-25T12:29:29;8.90;99.90
8662;DHT22;29684;47.722;9.388;2024-01-25T12:32:13;8.80;99.90
8662;DHT22;29684;47.722;9.388;2024-01-25T12:34:59;8.80;99.90
8662;DHT22;29684;47.722;9.388;2024-01-25T12:37:48;8.80;99.90
8662;DHT22;29684;47.722;9.388;2024-01-25T12:40:32;8.70;99.90
8662;DHT22;29684;47.722;9.388;2024-01-25T12:43:16;8.60;99.90
8662;DHT22;29684;47.722;9.388;2024-01-25T12:46:01;8.70;99.90
8662;DHT22;29684;47.722;9.388;2024-01-25T12:48:45;8.70;99.90
8662;DHT22;29684;47.722;9.388;2024-01-25T12:51:29;8.70;99.90
8662;DHT22;29684;47.722;9.388;2024-01-25T12:54:14;8.70;99.90
8662;DHT22;29684;47.722;9.388;2024-01-25T12:56:59;8.60;99.90
8662;DHT22;29684;47.722;9.388;2024-01-25T12:59:43;8.60;99.90
8662;DHT22;29684;47.722;9.388;2024-01-25T13:02:29;8.60;99.90
8662;DHT22;29684;47.722;9.388;2024-01-25T13:05:13;8.70;99.90
8662;DHT22;29684;47.722;9.388;2024-01-25T13:07:58;8.70;99.90
8662;DHT22;29684;47.722;9.388;2024-01-25T13:10:43;8.70;99.90
8662;DHT22;29684;47.722;9.388;2024-01-25T13:13:27;8.60;99.90
8662;DHT22;29684;47.722;9.388;2024-01-25T13:16:12;8.60;99.90
8662;DHT22;29684;47.722;9.388;2024-01-25T13:18:56;8.60;99.90
8662;DHT22;29684;47.722;9.388;2024-01-25T13:21:41;8.50;99.90
8662;DHT22;29684;47.722;9.388;2024-01-25T13:24:25;8.50;99.90
8662;DHT22;29684;47.722;9.388;2024-01-25T13:27:09;8.50;99.90
8662;DHT22;29684;47.722;9.388;2024-01-25T13:29:54;8.50;99.90
8662;DHT22;29684;47.722;9.388;2024-01-25T13:32:38;8.40;99.90
8662;DHT22;29684;47.722;9.388;2024-01-25T13:35:22;8.40;99.90
8662;DHT22;29684;47.722;9.388;2024-01-25T13:38:06;8.40;99.90
8662;DHT22;29684;47.722;9.388;2024-01-25T13:40:50;8.30;99.90
8662;DHT22;29684;47.722;9.388;2024-01-25T13:43:35;8.30;99.90
8662;DHT22;29684;47.722;9.388;2024-01-25T13:46:19;8.40;99.90
8662;DHT22;29684;47.722;9.388;2024-01-25T13:49:03;8.40;99.90
8662;DHT22;29684;47.722;9.388;2024-01-25T13:51:48;8.40;99.90
8662;DHT22;29684;47.722;9.388;2024-01-25T13:54:32;8.40;99.90
8662;DHT22;29684;47.722;9.388;2024-01-25T13:57:17;8.40;99.90
8662;DHT22;29684;47.722;9.388;2024-01-25T14:00:01;8.40;99.90
8662;DHT22;29684;47.722;9.388;2024-01-25T14:02:45;8.40;99.90
8662;DHT22;29684;47.722;9.388;2024-01-25T14:05:30;7.90;99.90
8662;DHT22;29684;47.722;9.388;2024-01-25T14:08:15;8.40;99.90
8662;DHT22;29684;47.722;9.388;2024-01-25T14:10:59;8.30;99.90
8662;DHT22;29684;47.722;9.388;2024-01-25T14:13:43;8.40;99.90
8662;DHT22;29684;47.722;9.388;2024-01-25T14:16:27;8.30;99.90
8662;DHT22;29684;47.722;9.388;2024-01-25T14:19:11;8.30;99.90
8662;DHT22;29684;47.722;9.388;2024-01-25T14:21:55;8.30;99.90
8662;DHT22;29684;47.722;9.388;2024-01-25T14:24:39;8.30;99.90
8662;DHT22;29684;47.722;9.388;2024-01-25T14:27:23;8.30;99.90
8662;DHT22;29684;47.722;9.388;2024-01-25T14:30:07;8.30;99.90
8662;DHT22;29684;47.722;9.388;2024-01-25T14:32:52;8.30;99.90
8662;DHT22;29684;47.722;9.388;2024-01-25T14:35:36;8.30;99.90
8662;DHT22;29684;47.722;9.388;2024-01-25T14:38:20;8.30;99.90
8662;DHT22;29684;47.722;9.388;2024-01-25T14:41:08;8.30;99.90
8662;DHT22;29684;47.722;9.388;2024-01-25T14:43:52;8.30;99.90
8662;DHT22;29684;47.722;9.388;2024-01-25T14:46:36;8.30;99.90
8662;DHT22;29684;47.722;9.388;2024-01-25T14:49:20;8.20;99.90
8662;DHT22;29684;47.722;9.388;2024-01-25T14:52:04;8.40;99.90
8662;DHT22;29684;47.722;9.388;2024-01-25T14:54:48;8.30;99.90
8662;DHT22;29684;47.722;9.388;2024-01-25T14:57:33;8.30;99.90
8662;DHT22;29684;47.722;9.388;2024-01-25T15:00:17;8.30;99.90
8662;DHT22;29684;47.722;9.388;2024-01-25T15:03:03;8.30;99.90
8662;DHT22;29684;47.722;9.388;2024-01-25T15:05:47;8.30;99.90
8662;DHT22;29684;47.722;9.388;2024-01-25T15:08:31;8.30;99.90
8662;DHT22;29684;47.722;9.388;2024-01-25T15:11:15;8.30;99.90
8662;DHT22;29684;47.722;9.388;2024-01-25T15:13:59;8.30;99.90
8662;DHT22;29684;47.722;9.388;2024-01-25T15:16:43;8.30;99.90
8662;DHT22;29684;47.722;9.388;2024-01-25T15:19:27;8.20;99.90
8662;DHT22;29684;47.722;9.388;2024-01-25T15:22:12;8.30;99.90
8662;DHT22;29684;47.722;9.388;2024-01-25T15:24:56;8.20;99.90
8662;DHT22;29684;47.722;9.388;2024-01-25T15:27:40;8.20;99.90
8662;DHT22;29684;47.722;9.388;2024-01-25T15:30:24;8.30;99.90
8662;DHT22;29684;47.722;9.388;2024-01-25T15:33:09;8.30;99.90
8662;DHT22;29684;47.722;9.388;2024-01-25T15:35:53;8.30;99.90
8662;DHT22;29684;47.722;9.388;2024-01-25T15:38:38;8.20;99.90
8662;DHT22;29684;47.722;9.388;2024-01-25T15:41:22;8.20;99.90
8662;DHT22;29684;47.722;9.388;2024-01-25T15:44:06;8.20;99.90
8662;DHT22;29684;47.722;9.388;2024-01-25T15:46:51;8.20;99.90
8662;DHT22;29684;47.722;9.388;2024-01-25T15:49:35;8.10;99.90
8662;DHT22;29684;47.722;9.388;2024-01-25T15:52:19;8.20;99.90
8662;DHT22;29684;47.722;9.388;2024-01-25T15:55:05;8.30;99.90
8662;DHT22;29684;47.722;9.388;2024-01-25T15:57:49;8.20;99.90
8662;DHT22;29684;47.722;9.388;2024-01-25T16:00:33;8.20;99.90
8662;DHT22;29684;47.722;9.388;2024-01-25T16:03:19;8.10;99.90
8662;DHT22;29684;47.722;9.388;2024-01-25T16:06:03;8.20;99.90
8662;DHT22;29684;47.722;9.388;2024-01-25T16:08:48;8.20;99.90
8662;DHT22;29684;47.722;9.388;2024-01-25T16:11:33;8.10;99.90
8662;DHT22;29684;47.722;9.388;2024-01-25T16:14:17;8.00;99.90
8662;DHT22;29684;47.722;9.388;2024-01-25T16:17:01;7.90;99.90
8662;DHT22;29684;47.722;9.388;2024-01-25T16:19:46;8.00;99.90
8662;DHT22;29684;47.722;9.388;2024-01-25T16:22:30;8.10;99.90
8662;DHT22;29684;47.722;9.388;2024-01-25T16:25:14;8.10;99.90
8662;DHT22;29684;47.722;9.388;2024-01-25T16:27:59;8.10;99.90
8662;DHT22;29684;47.722;9.388;2024-01-25T16:30:43;9.90;99.90
8662;DHT22;29684;47.722;9.388;2024-01-25T16:33:27;8.10;99.90
8662;DHT22;29684;47.722;9.388;2024-01-25T16:36:11;8.10;99.90
8662;DHT22;29684;47.722;9.388;2024-01-25T16:38:56;8.10;99.90
8662;DHT22;29684;47.722;9.388;2024-01-25T16:41:40;8.10;99.90
8662;DHT22;29684;47.722;9.388;2024-01-25T16:44:24;8.10;99.90
8662;DHT22;29684;47.722;9.388;2024-01-25T16:47:08;8.10;99.90
8662;DHT22;29684;47.722;9.388;2024-01-25T16:49:53;8.10;99.90
8662;DHT22;29684;47.722;9.388;2024-01-25T16:52:37;8.10;99.90
8662;DHT22;29684;47.722;9.388;2024-01-25T16:55:21;8.10;99.90
8662;DHT22;29684;47.722;9.388;2024-01-25T16:58:05;8.10;99.90
8662;DHT22;29684;47.722;9.388;2024-01-25T17:00:50;8.20;99.90
8662;DHT22;29684;47.722;9.388;2024-01-25T17:03:35;8.00;99.90
8662;DHT22;29684;47.722;9.388;2024-01-25T17:06:19;8.10;99.90
8662;DHT22;29684;47.722;9.388;2024-01-25T17:09:04;8.10;99.90
8662;DHT22;29684;47.722;9.388;2024-01-25T17:11:48;8.10;99.90
8662;DHT22;29684;47.722;9.388;2024-01-25T17:14:32;8.10;99.90
8662;DHT22;29684;47.722;9.388;2024-01-25T17:17:17;8.10;99.90
8662;DHT22;29684;47.722;9.388;2024-01-25T17:20:02;8.00;99.90
8662;DHT22;29684;47.722;9.388;2024-01-25T17:22:46;8.10;99.90
8662;DHT22;29684;47.722;9.388;2024-01-25T17:25:31;8.20;99.90
8662;DHT22;29684;47.722;9.388;2024-01-25T17:28:15;8.20;99.90
8662;DHT22;29684;47.722;9.388;2024-01-25T17:30:59;8.20;99.90
8662;DHT22;29684;47.722;9.388;2024-01-25T17:33:46;8.20;99.90
8662;DHT22;29684;47.722;9.388;2024-01-25T17:36:30;8.20;99.90
8662;DHT22;29684;47.722;9.388;2024-01-25T17:39:14;9.10;99.90
8662;DHT22;29684;47.722;9.388;2024-01-25T17:41:59;8.20;99.90
8662;DHT22;29684;47.722;9.388;2024-01-25T17:44:43;8.20;99.90
8662;DHT22;29684;47.722;9.388;2024-01-25T17:47:28;8.20;99.90
8662;DHT22;29684;47.722;9.388;2024-01-25T17:50:12;8.20;99.90
8662;DHT22;29684;47.722;9.388;2024-01-25T17:52:56;8.30;99.90
8662;DHT22;29684;47.722;9.388;2024-01-25T17:55:40;8.30;99.90
8662;DHT22;29684;47.722;9.388;2024-01-25T17:58:24;8.30;99.90